Terminal Aerodrome Forecast
Issued by NWS Wilmington, OH

Current Version | Previous Version | Text Only | Print | Product List | Glossary Off
Versions: 1 2 3 4 5 6 7 8 9 10 11 12 13 14

000
FTUS41 KILN 081800 AAA
TAFDAY
TAF AMD
KDAY 081843Z 0819/0918 26012G24KT P6SM BKN035
     FM082300 25008KT P6SM SCT040
     FM091500 29010KT P6SM BKN050=

USA.gov is the U.S. government's official web portal to all federal, state and local government web resources and services.